Wetterdaten: aktuell Mittwoch, 23.08.2017 17:30
Datum Zeit Temp. A. Feuchte A. Luftdruck Regen Wind Richtung Richtung Taupunkt Windchill Windben
23.08.2017 17:30 25,1 C 53 % 1014,4 hPa 0,0 l/m 2,3 km/h (1 Bft) W 261 14,8 C 25,1 C 16,1 km/h (3 Bft)
23.08.2017 17:16 25,2 C 52 % 1014,5 hPa 0,0 l/m 1,0 km/h (0 Bft) NW 306 14,6 C 25,2 C 11,3 km/h (2 Bft)
23.08.2017 17:00 24,9 C 53 % 1014,6 hPa 0,0 l/m 1,8 km/h (1 Bft) NW 311 14,6 C 24,9 C 12,9 km/h (3 Bft)
23.08.2017 16:45 25,1 C 52 % 1014,8 hPa 0,0 l/m 1,8 km/h (1 Bft) W 280 14,5 C 25,1 C 9,7 km/h (2 Bft)
23.08.2017 16:30 25,2 C 53 % 1014,8 hPa 0,0 l/m 1,4 km/h (1 Bft) W 275 14,9 C 25,2 C 6,4 km/h (2 Bft)
23.08.2017 16:15 25,0 C 54 % 1015,0 hPa 0,0 l/m 3,6 km/h (1 Bft) NW 310 15,0 C 25,0 C 14,5 km/h (3 Bft)
23.08.2017 16:00 25,1 C 52 % 1015,2 hPa 0,0 l/m 3,7 km/h (1 Bft) W 281 14,5 C 25,1 C 14,5 km/h (3 Bft)
23.08.2017 15:46 25,2 C 53 % 1015,2 hPa 0,0 l/m 1,0 km/h (0 Bft) W 281 14,9 C 25,2 C 6,4 km/h (2 Bft)
23.08.2017 15:30 24,8 C 52 % 1015,4 hPa 0,0 l/m 3,0 km/h (1 Bft) NW 308 14,3 C 24,8 C 17,7 km/h (3 Bft)
23.08.2017 15:15 25,0 C 51 % 1015,5 hPa 0,0 l/m 3,0 km/h (1 Bft) W 275 14,1 C 25,0 C 16,1 km/h (3 Bft)
23.08.2017 15:00 24,8 C 54 % 1015,6 hPa 0,0 l/m 2,6 km/h (1 Bft) NW 319 14,8 C 24,8 C 19,3 km/h (3 Bft)
23.08.2017 14:45 24,6 C 53 % 1015,7 hPa 0,0 l/m 1,6 km/h (1 Bft) W-SW 258 14,4 C 24,6 C 17,7 km/h (3 Bft)
23.08.2017 14:30 25,0 C 52 % 1016,0 hPa 0,0 l/m 0,4 km/h (0 Bft) N 358 14,4 C 25,0 C 3,2 km/h (1 Bft)
23.08.2017 14:15 24,5 C 53 % 1016,0 hPa 0,0 l/m 1,1 km/h (1 Bft) NW 319 14,3 C 24,5 C 8,0 km/h (2 Bft)
23.08.2017 14:00 24,2 C 54 % 1016,0 hPa 0,0 l/m 3,5 km/h (1 Bft) W-NW 295 14,3 C 24,2 C 16,1 km/h (3 Bft)
23.08.2017 13:45 24,3 C 54 % 1016,2 hPa 0,0 l/m 0,7 km/h (0 Bft) W-NW 284 14,4 C 24,3 C 4,8 km/h (1 Bft)
23.08.2017 13:30 23,8 C 54 % 1016,4 hPa 0,0 l/m 0,8 km/h (0 Bft) W-NW 296 13,9 C 23,8 C 4,8 km/h (1 Bft)
23.08.2017 13:15 23,3 C 56 % 1016,7 hPa 0,0 l/m 0,9 km/h (0 Bft) W-NW 300 14,0 C 23,3 C 3,2 km/h (1 Bft)
23.08.2017 13:00 23,2 C 56 % 1016,8 hPa 0,0 l/m 1,5 km/h (1 Bft) W 275 13,9 C 23,2 C 12,9 km/h (3 Bft)
23.08.2017 12:45 22,4 C 57 % 1016,8 hPa 0,0 l/m 1,5 km/h (1 Bft) W-NW 292 13,5 C 22,4 C 14,5 km/h (3 Bft)
23.08.2017 12:30 22,2 C 60 % 1016,9 hPa 0,0 l/m 3,3 km/h (1 Bft) W-SW 242 14,1 C 22,2 C 16,1 km/h (3 Bft)
23.08.2017 12:15 21,7 C 60 % 1016,9 hPa 0,0 l/m 2,5 km/h (1 Bft) W-SW 256 13,6 C 21,7 C 14,5 km/h (3 Bft)
23.08.2017 12:00 21,5 C 60 % 1017,0 hPa 0,0 l/m 3,5 km/h (1 Bft) W-NW 283 13,4 C 21,5 C 12,9 km/h (3 Bft)
23.08.2017 11:45 21,3 C 62 % 1017,2 hPa 0,0 l/m 1,2 km/h (1 Bft) W-NW 287 13,7 C 21,3 C 12,9 km/h (3 Bft)
23.08.2017 11:30 20,9 C 64 % 1017,4 hPa 0,0 l/m 1,8 km/h (1 Bft) W 265 13,8 C 20,9 C 14,5 km/h (3 Bft)
23.08.2017 11:15 20,3 C 66 % 1017,4 hPa 0,0 l/m 1,0 km/h (0 Bft) W-NW 283 13,7 C 20,3 C 4,8 km/h (1 Bft)
23.08.2017 11:00 19,9 C 65 % 1017,5 hPa 0,0 l/m 1,0 km/h (0 Bft) W-SW 255 13,1 C 19,9 C 8,0 km/h (2 Bft)
23.08.2017 10:45 19,2 C 68 % 1017,6 hPa 0,0 l/m 1,7 km/h (1 Bft) W 278 13,1 C 19,2 C 8,0 km/h (2 Bft)
23.08.2017 10:30 18,4 C 70 % 1017,6 hPa 0,0 l/m 3,5 km/h (1 Bft) W 261 12,8 C 18,4 C 9,7 km/h (2 Bft)
23.08.2017 10:15 18,1 C 72 % 1017,6 hPa 0,0 l/m 2,6 km/h (1 Bft) W-SW 244 13,0 C 18,1 C 6,4 km/h (2 Bft)
23.08.2017 10:00 17,3 C 72 % 1017,7 hPa 0,0 l/m 3,0 km/h (1 Bft) W 278 12,2 C 17,3 C 9,7 km/h (2 Bft)
23.08.2017 09:45 16,9 C 73 % 1017,8 hPa 0,0 l/m 1,9 km/h (1 Bft) W 277 12,0 C 16,9 C 8,0 km/h (2 Bft)
23.08.2017 09:30 16,5 C 74 % 1017,8 hPa 0,0 l/m 2,1 km/h (1 Bft) W-NW 285 11,8 C 16,5 C 6,4 km/h (2 Bft)
23.08.2017 09:15 15,7 C 75 % 1017,8 hPa 0,0 l/m 3,2 km/h (1 Bft) W 272 11,3 C 15,7 C 9,7 km/h (2 Bft)
23.08.2017 09:01 15,4 C 74 % 1017,7 hPa 0,0 l/m 3,7 km/h (1 Bft) W-NW 291 10,8 C 15,4 C 9,7 km/h (2 Bft)
23.08.2017 08:45 15,1 C 76 % 1017,6 hPa 0,0 l/m 2,0 km/h (1 Bft) W 267 10,9 C 15,1 C 8,0 km/h (2 Bft)
23.08.2017 08:30 14,7 C 76 % 1017,7 hPa 0,0 l/m 2,2 km/h (1 Bft) W-NW 290 10,5 C 14,7 C 11,3 km/h (2 Bft)
23.08.2017 08:15 14,4 C 77 % 1017,8 hPa 0,0 l/m 0,7 km/h (0 Bft) W-NW 289 10,4 C 14,4 C 4,8 km/h (1 Bft)
23.08.2017 08:00 13,8 C 81 % 1017,8 hPa 0,0 l/m 0,2 km/h (0 Bft) W-SW 258 10,6 C 13,8 C 3,2 km/h (1 Bft)
23.08.2017 07:45 13,1 C 84 % 1017,8 hPa 0,0 l/m 0,2 km/h (0 Bft) W-SW 258 10,5 C 13,1 C 1,6 km/h (1 Bft)
23.08.2017 07:30 12,2 C 87 % 1017,7 hPa 0,0 l/m 0,0 km/h (0 Bft) W-SW 256 10,1 C 12,2 C 0,0 km/h (0 Bft)
23.08.2017 07:15 11,3 C 90 % 1017,8 hPa 0,0 l/m 0,0 km/h (0 Bft) W-SW 256 9,7 C 11,3 C 0,0 km/h (0 Bft)
23.08.2017 07:00 10,8 C 90 % 1017,8 hPa 0,0 l/m 0,0 km/h (0 Bft) W-SW 257 9,2 C 10,8 C 1,6 km/h (1 Bft)
23.08.2017 06:45 10,6 C 91 % 1017,8 hPa 0,0 l/m 0,0 km/h (0 Bft) W-SW 256 9,2 C 10,6 C 0,0 km/h (0 Bft)
23.08.2017 06:30 10,5 C 90 % 1018,1 hPa 0,0 l/m 0,0 km/h (0 Bft) W-SW 256 8,9 C 10,5 C 0,0 km/h (0 Bft)
23.08.2017 06:15 10,7 C 90 % 1018,1 hPa 0,0 l/m 0,0 km/h (0 Bft) W-SW 256 9,1 C 10,7 C 0,0 km/h (0 Bft)
23.08.2017 06:00 10,8 C 90 % 1018,1 hPa 0,0 l/m 0,0 km/h (0 Bft) W-SW 256 9,2 C 10,8 C 0,0 km/h (0 Bft)
23.08.2017 05:45 10,9 C 90 % 1018,0 hPa 0,0 l/m 0,0 km/h (0 Bft) W-SW 256 9,3 C 10,9 C 0,0 km/h (0 Bft)
23.08.2017 05:30 11,1 C 89 % 1018,2 hPa 0,0 l/m 0,0 km/h (0 Bft) W-SW 256 9,4 C 11,1 C 0,0 km/h (0 Bft)
23.08.2017 05:15 11,1 C 89 % 1018,3 hPa 0,0 l/m 0,0 km/h (0 Bft) W-SW 256 9,4 C 11,1 C 0,0 km/h (0 Bft)
23.08.2017 05:00 11,3 C 89 % 1018,4 hPa 0,0 l/m 0,0 km/h (0 Bft) W-SW 256 9,6 C 11,3 C 0,0 km/h (0 Bft)
23.08.2017 04:45 11,3 C 89 % 1018,5 hPa 0,0 l/m 0,0 km/h (0 Bft) W-SW 256 9,6 C 11,3 C 0,0 km/h (0 Bft)
23.08.2017 04:30 11,4 C 88 % 1018,6 hPa 0,0 l/m 0,0 km/h (0 Bft) W-SW 256 9,5 C 11,4 C 0,0 km/h (0 Bft)
23.08.2017 04:15 11,6 C 88 % 1018,6 hPa 0,0 l/m 0,0 km/h (0 Bft) W-SW 256 9,7 C 11,6 C 0,0 km/h (0 Bft)
23.08.2017 04:00 11,7 C 88 % 1018,6 hPa 0,0 l/m 0,0 km/h (0 Bft) W-SW 256 9,8 C 11,7 C 0,0 km/h (0 Bft)
23.08.2017 03:45 11,7 C 88 % 1018,7 hPa 0,0 l/m 0,0 km/h (0 Bft) W-SW 256 9,8 C 11,7 C 0,0 km/h (0 Bft)
23.08.2017 03:30 11,8 C 87 % 1018,8 hPa 0,0 l/m 0,0 km/h (0 Bft) W-SW 256 9,7 C 11,8 C 0,0 km/h (0 Bft)
23.08.2017 03:16 11,9 C 87 % 1018,8 hPa 0,0 l/m 0,0 km/h (0 Bft) W-SW 256 9,8 C 11,9 C 0,0 km/h (0 Bft)
23.08.2017 03:00 12,1 C 86 % 1018,9 hPa 0,0 l/m 0,0 km/h (0 Bft) W-SW 256 9,8 C 12,1 C 0,0 km/h (0 Bft)
23.08.2017 02:45 12,2 C 86 % 1018,9 hPa 0,0 l/m 0,0 km/h (0 Bft) W-SW 256 9,9 C 12,2 C 0,0 km/h (0 Bft)
23.08.2017 02:30 12,4 C 85 % 1019,0 hPa 0,0 l/m 0,0 km/h (0 Bft) W-SW 256 9,9 C 12,4 C 0,0 km/h (0 Bft)
23.08.2017 02:15 12,7 C 84 % 1019,1 hPa 0,0 l/m 0,0 km/h (0 Bft) W-SW 256 10,1 C 12,7 C 0,0 km/h (0 Bft)
23.08.2017 02:00 12,8 C 85 % 1019,1 hPa 0,0 l/m 0,0 km/h (0 Bft) W-SW 256 10,3 C 12,8 C 0,0 km/h (0 Bft)
23.08.2017 01:46 12,9 C 84 % 1019,3 hPa 0,0 l/m 0,0 km/h (0 Bft) W-SW 256 10,3 C 12,9 C 0,0 km/h (0 Bft)
23.08.2017 01:30 13,2 C 83 % 1019,4 hPa 0,0 l/m 0,0 km/h (0 Bft) W-SW 256 10,4 C 13,2 C 0,0 km/h (0 Bft)
23.08.2017 01:15 13,4 C 82 % 1019,4 hPa 0,0 l/m 0,0 km/h (0 Bft) W-SW 256 10,4 C 13,4 C 0,0 km/h (0 Bft)
23.08.2017 01:00 13,8 C 81 % 1019,3 hPa 0,0 l/m 0,1 km/h (0 Bft) W-SW 256 10,6 C 13,8 C 1,6 km/h (1 Bft)
23.08.2017 00:45 13,8 C 81 % 1019,3 hPa 0,0 l/m 0,0 km/h (0 Bft) W-SW 252 10,6 C 13,8 C 0,0 km/h (0 Bft)
23.08.2017 00:30 13,9 C 82 % 1019,3 hPa 0,0 l/m 0,0 km/h (0 Bft) W-SW 251 10,9 C 13,9 C 0,0 km/h (0 Bft)
23.08.2017 00:15 14,1 C 82 % 1019,3 hPa 0,0 l/m 0,0 km/h (0 Bft) W-SW 250 11,1 C 14,1 C 0,0 km/h (0 Bft)
23.08.2017 00:00 14,3 C 81 % 1019,4 hPa 0,0 l/m 0,0 km/h (0 Bft) W-SW 250 11,1 C 14,3 C 0,0 km/h (0 Bft)
22.08.2017 23:46 14,7 C 80 % 1019,3 hPa 0,0 l/m 0,0 km/h (0 Bft) W-SW 250 11,3 C 14,7 C 0,0 km/h (0 Bft)
22.08.2017 23:30 15,1 C 78 % 1019,4 hPa 0,0 l/m 0,0 km/h (0 Bft) W-SW 250 11,3 C 15,1 C 0,0 km/h (0 Bft)
22.08.2017 23:15 15,3 C 78 % 1019,5 hPa 0,0 l/m 0,0 km/h (0 Bft) W-SW 250 11,5 C 15,3 C 0,0 km/h (0 Bft)
22.08.2017 23:01 15,4 C 77 % 1019,5 hPa 0,0 l/m 0,0 km/h (0 Bft) W-SW 250 11,4 C 15,4 C 1,6 km/h (1 Bft)
22.08.2017 22:45 15,8 C 76 % 1019,5 hPa 0,0 l/m 0,1 km/h (0 Bft) W-SW 250 11,6 C 15,8 C 1,6 km/h (1 Bft)
22.08.2017 22:30 15,9 C 75 % 1019,6 hPa 0,0 l/m 0,1 km/h (0 Bft) W-SW 249 11,5 C 15,9 C 1,6 km/h (1 Bft)
22.08.2017 22:15 16,1 C 75 % 1019,6 hPa 0,0 l/m 0,3 km/h (0 Bft) W-SW 244 11,7 C 16,1 C 1,6 km/h (1 Bft)
22.08.2017 22:00 16,1 C 75 % 1019,6 hPa 0,0 l/m 0,6 km/h (0 Bft) W-SW 242 11,7 C 16,1 C 3,2 km/h (1 Bft)
22.08.2017 21:46 16,3 C 76 % 1019,6 hPa 0,0 l/m 0,5 km/h (0 Bft) SW 235 12,1 C 16,3 C 3,2 km/h (1 Bft)
22.08.2017 21:30 16,9 C 74 % 1019,6 hPa 0,0 l/m 0,0 km/h (0 Bft) SW 233 12,2 C 16,9 C 0,0 km/h (0 Bft)
22.08.2017 21:15 17,4 C 73 % 1019,8 hPa 0,0 l/m 0,0 km/h (0 Bft) SW 233 12,5 C 17,4 C 0,0 km/h (0 Bft)
22.08.2017 21:00 17,7 C 71 % 1019,7 hPa 0,0 l/m 0,0 km/h (0 Bft) SW 233 12,4 C 17,7 C 0,0 km/h (0 Bft)
22.08.2017 20:45 18,1 C 71 % 1019,5 hPa 0,0 l/m 0,0 km/h (0 Bft) SW 233 12,8 C 18,1 C 0,0 km/h (0 Bft)
22.08.2017 20:30 18,4 C 69 % 1019,4 hPa 0,0 l/m 0,0 km/h (0 Bft) SW 232 12,6 C 18,4 C 1,6 km/h (1 Bft)
22.08.2017 20:15 18,7 C 68 % 1019,4 hPa 0,0 l/m 0,0 km/h (0 Bft) SW 232 12,7 C 18,7 C 0,0 km/h (0 Bft)
22.08.2017 20:00 18,9 C 67 % 1019,4 hPa 0,0 l/m 0,0 km/h (0 Bft) SW 232 12,6 C 18,9 C 0,0 km/h (0 Bft)
22.08.2017 19:46 19,1 C 66 % 1019,4 hPa 0,0 l/m 0,2 km/h (0 Bft) SW 232 12,6 C 19,1 C 1,6 km/h (1 Bft)
22.08.2017 19:30 19,5 C 65 % 1019,4 hPa 0,0 l/m 0,6 km/h (0 Bft) SW 230 12,7 C 19,5 C 4,8 km/h (1 Bft)
22.08.2017 19:15 20,0 C 64 % 1019,5 hPa 0,0 l/m 0,8 km/h (0 Bft) W-SW 239 13,0 C 20,0 C 4,8 km/h (1 Bft)
22.08.2017 19:00 20,4 C 62 % 1019,6 hPa 0,0 l/m 0,2 km/h (0 Bft) S-SW 206 12,9 C 20,4 C 3,2 km/h (1 Bft)
22.08.2017 18:45 20,6 C 62 % 1019,7 hPa 0,0 l/m 0,8 km/h (0 Bft) W-SW 237 13,1 C 20,6 C 6,4 km/h (2 Bft)
22.08.2017 18:30 20,6 C 62 % 1019,8 hPa 0,0 l/m 0,6 km/h (0 Bft) SW 228 13,1 C 20,6 C 3,2 km/h (1 Bft)
22.08.2017 18:15 20,6 C 60 % 1019,8 hPa 0,0 l/m 3,2 km/h (1 Bft) SW 235 12,6 C 20,6 C 9,7 km/h (2 Bft)
22.08.2017 18:00 20,9 C 59 % 1019,9 hPa 0,0 l/m 4,5 km/h (1 Bft) SW 235 12,6 C 20,9 C 11,3 km/h (2 Bft)
_ Min-Zeit 06:30 15:15 17:30 - 20:00 - - 06:30 06:30 20:00
Minimum _ 10,5 C 51 % 1014,4 hPa - 0,0 km/h (0 Bft) - - 8,9 C 10,5 C 0,0 km/h (0 Bft)
_ Max-Zeit 16:00 06:45 18:00 18:00 18:00 - - 16:15 15:46 15:00
Maximum _ 25,3 C 91 % 1019,9 hPa 0,0 l/m 4,5 km/h
SW (1 Bft)
- - 15,0 C 25,2 C 19,3 km/h
W-SW (3 Bft)
Durchschnitt _ 17,6 C 71 % 1018,1 hPa #0,0 l/m 1,2 km/h (1 Bft) W - 12,0 C 17,6 C 5,4 km/h (1 Bft)